KBGR/BGR METAR and TAF weather

Enter ICAO airport designator
Station Type Date Time Source
KBGR METAR 2021/07/29 02:53 UTC NOAA

KBGR 290253Z 22003KT 10SM CLR 13/09 A2999 RMK AO2 SLP153 T01280094 50003


Station Type Date Time Source
KBGR Decoded METAR 2021/07/29 02:53 UTC NOAA

BANGOR INT'L AIRPORT, ME, United States (KBGR) 44-48N 068-49W 57M
Jul 28, 2021 - 10:53 PM EDT / 2021.07.29 0253 UTC
Wind: from the SW (220 degrees) at 3 MPH (3 KT):0
Visibility: 10 mile(s):0
Sky conditions: clear
Temperature: 55.0 F (12.8 C)
Dew Point: 48.9 F (9.4 C)
Relative Humidity: 79%
Pressure (altimeter): 29.99 in. Hg (1015 hPa)
Pressure tendency: 0.01 inches (0.3 hPa) higher than three hours ago
ob: KBGR 290253Z 22003KT 10SM CLR 13/09 A2999 RMK AO2 SLP153 T01280094 50003
cycle: 3

Station Type Date Time Source
KBGR TAF 2021/07/28 18:42 UTC NOAA

TAF KBGR 281739Z 2818/2918 35010G18KT P6SM FEW045
FM290100 00000KT P6SM SKC
FM291500 19010KT P6SM FEW060

Example: see airport list